createdAt,value
2022-12-04T00:37:26.070Z,90.8
2022-12-04T00:57:26.059Z,91.2
2022-12-04T01:17:26.027Z,91.5
2022-12-04T01:37:26.012Z,91.9
2022-12-04T02:17:25.959Z,92.4
2022-12-04T02:37:25.941Z,92.1
2022-12-04T03:17:25.894Z,92.1
2022-12-04T03:37:25.880Z,91.7
2022-12-04T03:57:25.859Z,91.6
2022-12-04T04:17:25.821Z,90.9
2022-12-04T04:37:25.811Z,90.6
2022-12-04T04:57:25.780Z,90.6
2022-12-04T05:17:25.764Z,91.1
2022-12-04T05:37:25.757Z,91.3
2022-12-04T05:57:25.853Z,91.7
2022-12-04T06:17:25.694Z,91.8
2022-12-04T06:37:25.678Z,91.7
2022-12-04T07:17:25.620Z,89.9
2022-12-04T07:37:25.607Z,89.5
2022-12-04T07:57:25.624Z,89.4
2022-12-04T08:17:25.627Z,89.5
2022-12-04T08:37:25.532Z,89.4
2022-12-04T08:57:25.524Z,89.4
2022-12-04T09:17:25.497Z,89.3
2022-12-04T09:37:25.474Z,89
2022-12-04T09:57:25.452Z,89.1
2022-12-04T10:17:29.374Z,89
2022-12-04T10:37:25.440Z,89.9
2022-12-04T10:57:25.386Z,89.9
2022-12-04T11:17:25.357Z,90.1
2022-12-04T11:37:25.324Z,89.8
2022-12-04T11:57:25.307Z,89.8
2022-12-04T12:17:25.282Z,89.6
2022-12-04T13:17:25.220Z,88.7
2022-12-04T13:37:25.205Z,88.4
2022-12-04T13:57:25.192Z,88.4
2022-12-04T14:17:25.153Z,88.5
2022-12-04T14:37:25.110Z,89.5
2022-12-04T14:57:25.094Z,89.9
2022-12-04T15:37:25.037Z,90.3
2022-12-04T15:57:25.005Z,90.5
2022-12-04T16:17:24.998Z,90.9
2022-12-04T16:57:24.954Z,92.8
2022-12-04T17:17:24.920Z,94.3
2022-12-04T17:57:24.871Z,95.9
2022-12-04T18:37:24.821Z,96.9
2022-12-04T20:57:24.663Z,95.6
2022-12-04T21:17:24.664Z,95.7
2022-12-04T21:37:24.595Z,95.7
2022-12-04T21:57:24.580Z,95.6
2022-12-04T22:17:24.557Z,95.3
2022-12-04T22:57:24.512Z,94.9
2022-12-04T23:17:24.485Z,94.9
2022-12-04T23:37:24.458Z,95
2022-12-04T23:57:24.472Z,95.2
